createdAt,value
2018-02-03T00:01:20.083Z,12.40
2018-02-03T00:03:47.861Z,12.23
2018-02-03T00:06:16.325Z,12.53
2018-02-03T00:08:44.090Z,13.40
2018-02-03T00:11:11.663Z,13.30
2018-02-03T00:13:39.314Z,13.30
2018-02-03T00:16:07.691Z,13.50
2018-02-03T00:18:36.424Z,12.67
2018-02-03T00:21:04.119Z,13.60
2018-02-03T00:23:31.753Z,13.70
2018-02-03T00:26:00.576Z,13.37
2018-02-03T00:28:29.026Z,14.87
2018-02-03T00:30:56.634Z,13.70
2018-02-03T00:33:24.258Z,13.67
2018-02-03T00:35:52.650Z,13.27
2018-02-03T00:38:26.091Z,12.27
2018-02-03T00:40:53.985Z,13.03
2018-02-03T00:43:21.912Z,13.57
2018-02-03T00:45:50.360Z,13.20
2018-02-03T00:48:18.221Z,13.50
2018-02-03T00:50:46.578Z,12.70
2018-02-03T00:53:14.156Z,13.17
2018-02-03T00:55:41.739Z,13.33
2018-02-03T00:58:09.682Z,13.63
2018-02-03T01:00:37.251Z,14.13
2018-02-03T01:03:04.914Z,13.20
2018-02-03T01:05:32.751Z,13.17
2018-02-03T01:08:00.626Z,12.77
2018-02-03T01:10:28.351Z,13.07
2018-02-03T01:13:02.005Z,12.43
2018-02-03T01:15:29.612Z,12.50
2018-02-03T01:17:57.291Z,13.33
2018-02-03T01:20:25.059Z,13.80
2018-02-03T01:22:52.756Z,12.43
2018-02-03T01:25:20.499Z,13.97
2018-02-03T01:27:48.276Z,12.87
2018-02-03T01:30:16.116Z,12.83
2018-02-03T01:32:43.710Z,13.33
2018-02-03T01:35:11.311Z,12.60
2018-02-03T01:37:39.223Z,12.10
2018-02-03T01:40:07.647Z,11.97
2018-02-03T01:42:35.230Z,11.27
2018-02-03T01:45:02.813Z,11.77
2018-02-03T01:47:54.308Z,11.30
2018-02-03T01:50:22.805Z,11.83
2018-02-03T01:52:50.399Z,11.27
2018-02-03T01:55:18.758Z,11.97
2018-02-03T01:57:46.653Z,30.97
2018-02-03T02:00:14.356Z,14.40
2018-02-03T02:02:42.014Z,19.97
2018-02-03T02:05:10.341Z,13.20
2018-02-03T02:07:38.774Z,13.57
2018-02-03T02:10:06.354Z,12.80
2018-02-03T02:12:33.933Z,12.17
2018-02-03T02:15:01.497Z,11.93
2018-02-03T02:17:29.053Z,12.03
2018-02-03T02:19:56.632Z,11.50
2018-02-03T02:22:24.497Z,10.60
2018-02-03T02:24:52.091Z,11.93
2018-02-03T02:27:19.695Z,9.80
2018-02-03T02:29:47.310Z,11.00
2018-02-03T02:32:14.919Z,9.30
2018-02-03T02:34:42.498Z,9.60
2018-02-03T02:37:10.163Z,9.13
2018-02-03T02:39:37.828Z,8.83
2018-02-03T02:42:05.420Z,8.67
2018-02-03T02:44:33.043Z,8.80
2018-02-03T02:47:00.626Z,8.67
2018-02-03T02:49:28.208Z,8.83
2018-02-03T02:51:55.877Z,7.93
2018-02-03T02:54:23.453Z,7.57
2018-02-03T02:56:51.049Z,7.70
2018-02-03T02:59:18.602Z,8.20
2018-02-03T03:01:46.192Z,6.60
2018-02-03T03:04:13.804Z,5.43
2018-02-03T03:06:42.150Z,6.20
2018-02-03T03:09:10.723Z,5.50
2018-02-03T03:11:38.704Z,5.33
2018-02-03T03:14:06.280Z,5.03
2018-02-03T03:16:33.977Z,4.10
2018-02-03T03:19:01.591Z,3.23
2018-02-03T03:21:29.238Z,3.23
2018-02-03T03:23:56.820Z,3.47
2018-02-03T03:26:24.442Z,2.60
2018-02-03T03:28:52.070Z,3.10
2018-02-03T03:31:20.443Z,3.43
2018-02-03T03:33:48.057Z,3.70
2018-02-03T03:36:15.703Z,2.77
2018-02-03T03:38:43.290Z,2.93
2018-02-03T03:41:11.621Z,2.77
2018-02-03T03:43:39.570Z,2.93
2018-02-03T03:46:08.592Z,3.10
2018-02-03T03:48:36.174Z,2.90
2018-02-03T03:51:03.753Z,2.60
2018-02-03T03:53:31.359Z,2.33
2018-02-03T03:55:58.947Z,2.80
2018-02-03T03:58:27.324Z,2.40
2018-02-03T04:00:54.886Z,2.33
2018-02-03T04:03:22.450Z,2.27
2018-02-03T04:05:50.020Z,2.47
2018-02-03T04:08:17.589Z,2.13
2018-02-03T04:10:45.147Z,2.30
2018-02-03T04:13:13.496Z,2.37
2018-02-03T04:15:42.046Z,2.20
2018-02-03T04:18:09.620Z,1.90
2018-02-03T04:20:37.211Z,2.30
2018-02-03T04:23:04.774Z,2.30
2018-02-03T04:25:32.411Z,2.30
2018-02-03T04:27:59.977Z,2.50
2018-02-03T04:30:27.591Z,2.80
2018-02-03T04:32:55.154Z,2.93
2018-02-03T04:35:22.851Z,3.60
2018-02-03T04:37:50.502Z,3.10
2018-02-03T04:40:18.134Z,3.23
2018-02-03T04:42:45.745Z,3.43
2018-02-03T04:45:13.384Z,3.47
2018-02-03T04:47:41.071Z,4.10
2018-02-03T04:50:08.691Z,3.47
2018-02-03T04:52:36.274Z,3.67
2018-02-03T04:55:04.697Z,3.73
2018-02-03T04:57:32.274Z,4.03
2018-02-03T05:00:00.655Z,3.60
2018-02-03T05:02:28.275Z,3.80
2018-02-03T05:04:55.839Z,3.17
2018-02-03T05:07:23.679Z,3.20
2018-02-03T05:09:52.074Z,3.30
2018-02-03T05:12:19.660Z,3.00
2018-02-03T05:14:47.250Z,3.20
2018-02-03T05:17:14.812Z,3.37
2018-02-03T05:19:43.220Z,3.20
2018-02-03T05:22:10.866Z,3.27
2018-02-03T05:24:38.546Z,3.63
2018-02-03T05:27:06.135Z,3.30
2018-02-03T05:29:33.722Z,3.50
2018-02-03T05:32:01.338Z,3.70
2018-02-03T05:34:28.954Z,3.67
2018-02-03T05:36:56.541Z,3.87
2018-02-03T05:39:24.098Z,3.30
2018-02-03T05:41:51.708Z,3.50
2018-02-03T05:44:20.037Z,3.50
2018-02-03T05:46:47.648Z,3.83
2018-02-03T05:49:15.273Z,3.57
2018-02-03T05:51:42.856Z,3.90
2018-02-03T05:54:10.453Z,3.27
2018-02-03T05:56:38.766Z,3.90
2018-02-03T05:59:08.290Z,3.90
2018-02-03T06:01:36.667Z,4.17
2018-02-03T06:04:04.228Z,3.90
2018-02-03T06:06:31.854Z,3.47
2018-02-03T06:08:59.430Z,3.93
2018-02-03T06:11:27.001Z,4.53
2018-02-03T06:13:54.564Z,4.63
2018-02-03T06:16:22.114Z,4.23
2018-02-03T06:18:50.454Z,4.37
2018-02-03T06:21:18.011Z,4.40
2018-02-03T06:23:45.609Z,4.23
2018-02-03T06:26:13.177Z,4.20
2018-02-03T06:28:40.777Z,4.50
2018-02-03T06:31:09.114Z,4.47
2018-02-03T06:33:36.701Z,4.50
2018-02-03T06:36:04.259Z,5.10
2018-02-03T06:38:31.842Z,4.27
2018-02-03T06:40:59.423Z,4.90
2018-02-03T06:44:35.291Z,4.50
2018-02-03T06:47:02.878Z,4.87
2018-02-03T06:49:30.458Z,4.80
2018-02-03T06:51:58.870Z,4.97
2018-02-03T06:54:26.430Z,5.23
2018-02-03T06:56:54.038Z,4.47
2018-02-03T06:59:21.638Z,4.90
2018-02-03T07:01:49.201Z,4.70
2018-02-03T07:04:17.095Z,4.57
2018-02-03T07:06:44.679Z,4.87
2018-02-03T07:09:12.305Z,4.33
2018-02-03T07:11:40.661Z,4.83
2018-02-03T07:14:08.265Z,4.90
2018-02-03T07:16:36.587Z,4.73
2018-02-03T07:19:04.646Z,5.53
2018-02-03T07:21:33.470Z,5.60
2018-02-03T07:24:01.102Z,5.00
2018-02-03T07:26:29.530Z,4.67
2018-02-03T07:28:57.094Z,5.33
2018-02-03T07:31:24.671Z,5.20
2018-02-03T07:33:52.265Z,5.10
2018-02-03T07:36:19.866Z,5.03
2018-02-03T07:38:47.440Z,4.43
2018-02-03T07:41:15.014Z,5.00
2018-02-03T07:43:42.614Z,5.47
2018-02-03T07:46:10.958Z,5.03
2018-02-03T07:48:38.889Z,5.30
2018-02-03T07:51:08.042Z,4.90
2018-02-03T07:53:35.655Z,5.47
2018-02-03T07:56:03.250Z,5.50
2018-02-03T07:58:32.177Z,5.60
2018-02-03T08:00:59.751Z,5.90
2018-02-03T08:03:27.327Z,5.67
2018-02-03T08:05:54.886Z,4.87
2018-02-03T08:08:23.544Z,5.23
2018-02-03T08:10:52.497Z,5.63
2018-02-03T08:13:20.095Z,5.60
2018-02-03T08:15:47.662Z,6.23
2018-02-03T08:18:15.709Z,6.13
2018-02-03T08:20:43.339Z,4.90
2018-02-03T08:23:10.930Z,5.10
2018-02-03T08:25:39.547Z,5.27
2018-02-03T08:28:07.191Z,5.43
2018-02-03T08:30:35.402Z,5.33
2018-02-03T08:33:03.060Z,5.23
2018-02-03T08:35:31.475Z,5.13
2018-02-03T08:37:59.156Z,5.63
2018-02-03T08:40:26.731Z,5.60
2018-02-03T08:42:54.431Z,5.20
2018-02-03T08:45:21.973Z,5.27
2018-02-03T08:47:49.574Z,5.07
2018-02-03T08:50:17.167Z,4.63
2018-02-03T08:52:45.587Z,5.00
2018-02-03T08:55:13.903Z,4.70
2018-02-03T08:57:41.521Z,4.50
2018-02-03T09:00:10.027Z,4.90
2018-02-03T09:02:38.431Z,4.63
2018-02-03T09:05:06.778Z,5.00
2018-02-03T09:07:35.158Z,4.93
2018-02-03T09:10:02.825Z,4.53
2018-02-03T09:12:30.483Z,4.40
2018-02-03T09:14:59.018Z,4.50
2018-02-03T09:17:27.412Z,4.43
2018-02-03T09:19:55.247Z,5.27
2018-02-03T09:22:23.406Z,4.87
2018-02-03T09:24:51.042Z,5.80
2018-02-03T09:27:18.707Z,4.50
2018-02-03T09:29:46.314Z,4.57
2018-02-03T09:32:14.711Z,5.00
2018-02-03T09:34:43.158Z,4.57
2018-02-03T09:37:10.782Z,5.03
2018-02-03T09:39:39.373Z,5.37
2018-02-03T09:42:06.994Z,5.40
2018-02-03T09:44:35.974Z,5.00
2018-02-03T09:47:04.195Z,6.00
2018-02-03T09:49:31.861Z,4.67
2018-02-03T09:52:00.128Z,5.57
2018-02-03T09:54:27.750Z,6.23
2018-02-03T09:56:55.802Z,6.10
2018-02-03T09:59:25.538Z,5.63
2018-02-03T10:01:53.216Z,5.23
2018-02-03T10:04:20.768Z,5.40
2018-02-03T10:06:50.044Z,5.67
2018-02-03T10:09:18.780Z,5.63
2018-02-03T10:11:46.479Z,6.30
2018-02-03T10:14:15.085Z,6.17
2018-02-03T10:16:42.743Z,5.97
2018-02-03T10:19:10.331Z,5.90
2018-02-03T10:21:39.746Z,5.57
2018-02-03T10:24:08.124Z,5.87
2018-02-03T10:26:36.345Z,5.67
2018-02-03T10:29:05.398Z,6.30
2018-02-03T10:31:34.237Z,6.50
2018-02-03T10:34:01.862Z,6.67
2018-02-03T10:36:29.764Z,7.73
2018-02-03T10:38:57.470Z,8.27
2018-02-03T10:41:25.088Z,8.33
2018-02-03T10:43:52.723Z,6.43
2018-02-03T10:46:21.139Z,6.57
2018-02-03T10:48:49.782Z,6.83
2018-02-03T10:51:17.364Z,6.57
2018-02-03T10:53:45.769Z,7.53
2018-02-03T10:56:13.339Z,6.13
2018-02-03T10:58:41.570Z,6.53
2018-02-03T11:01:12.649Z,6.60
2018-02-03T11:03:41.201Z,6.40
2018-02-03T11:06:08.888Z,7.07
2018-02-03T11:08:37.378Z,6.50
2018-02-03T11:11:05.998Z,6.40
2018-02-03T11:13:33.791Z,5.47
2018-02-03T11:16:02.295Z,5.47
2018-02-03T11:18:30.777Z,5.50
2018-02-03T11:20:58.466Z,4.73
2018-02-03T11:23:27.705Z,5.07
2018-02-03T11:25:56.535Z,5.43
2018-02-03T11:28:24.186Z,5.57
2018-02-03T11:30:54.182Z,5.10
2018-02-03T11:33:22.372Z,5.53
2018-02-03T11:35:49.986Z,5.30
2018-02-03T11:38:17.601Z,4.97
2018-02-03T11:40:45.989Z,4.87
2018-02-03T11:43:15.448Z,5.00
2018-02-03T11:45:44.533Z,4.10
2018-02-03T11:48:13.101Z,4.10
2018-02-03T11:50:41.026Z,4.13
2018-02-03T11:53:10.456Z,3.77
2018-02-03T11:55:38.190Z,4.23
2018-02-03T11:58:05.784Z,3.77
2018-02-03T12:00:33.390Z,3.83
2018-02-03T12:03:01.037Z,3.40
2018-02-03T12:05:28.756Z,4.10
2018-02-03T12:07:56.411Z,4.73
2018-02-03T12:10:24.044Z,4.80
2018-02-03T12:12:51.663Z,4.20
2018-02-03T12:15:19.244Z,5.27
2018-02-03T12:17:47.484Z,4.07
2018-02-03T12:20:15.784Z,5.47
2018-02-03T12:22:43.433Z,4.53
2018-02-03T12:25:11.082Z,3.83
2018-02-03T12:27:39.200Z,4.30
2018-02-03T12:30:08.494Z,4.80
2018-02-03T12:32:37.990Z,4.47
2018-02-03T12:35:06.438Z,3.70
2018-02-03T12:37:34.921Z,3.90
2018-02-03T12:40:02.517Z,4.20
2018-02-03T12:42:30.416Z,4.57
2018-02-03T12:44:58.996Z,4.13
2018-02-03T12:47:27.285Z,4.30
2018-02-03T12:49:54.926Z,4.27
2018-02-03T12:52:22.636Z,4.13
2018-02-03T12:54:51.496Z,4.10
2018-02-03T12:57:19.846Z,3.73
2018-02-03T12:59:53.347Z,4.23
2018-02-03T13:02:22.102Z,3.37
2018-02-03T13:04:50.927Z,4.27
2018-02-03T13:07:19.397Z,3.73
2018-02-03T13:09:47.787Z,3.90
2018-02-03T13:12:16.515Z,3.53
2018-02-03T13:14:45.452Z,4.40
2018-02-03T13:17:13.977Z,3.80
2018-02-03T13:19:42.500Z,4.50
2018-02-03T13:22:10.113Z,3.67
2018-02-03T13:24:38.415Z,3.80
2018-02-03T13:27:06.091Z,3.70
2018-02-03T13:29:33.954Z,3.60
2018-02-03T13:32:04.301Z,3.37
2018-02-03T13:34:32.552Z,3.43
2018-02-03T13:37:02.262Z,3.77
2018-02-03T13:39:29.955Z,3.73
2018-02-03T13:41:57.577Z,3.90
2018-02-03T13:44:25.819Z,3.50
2018-02-03T13:46:54.132Z,3.27
2018-02-03T13:49:23.585Z,3.20
2018-02-03T13:51:51.204Z,3.10
2018-02-03T13:54:19.553Z,3.33
2018-02-03T13:56:48.780Z,3.13
2018-02-03T13:59:16.385Z,3.03
2018-02-03T14:01:44.739Z,3.20
2018-02-03T14:05:50.740Z,3.40
2018-02-03T14:08:18.432Z,3.33
2018-02-03T14:10:46.060Z,3.30
2018-02-03T14:13:13.700Z,3.47
2018-02-03T14:15:41.342Z,3.23
2018-02-03T14:18:10.690Z,3.80
2018-02-03T14:20:38.352Z,3.27
2018-02-03T14:23:06.009Z,3.70
2018-02-03T14:25:34.348Z,3.83
2018-02-03T14:28:01.981Z,4.30
2018-02-03T14:30:29.616Z,3.90
2018-02-03T14:32:58.129Z,3.97
2018-02-03T14:35:26.497Z,3.60
2018-02-03T14:37:54.136Z,3.70
2018-02-03T14:40:21.790Z,4.70
2018-02-03T14:42:50.976Z,4.30
2018-02-03T14:45:18.610Z,3.57
2018-02-03T14:47:46.231Z,3.67
2018-02-03T14:50:13.909Z,4.27
2018-02-03T14:52:41.470Z,3.90
2018-02-03T14:55:09.117Z,3.93
2018-02-03T14:57:36.764Z,3.93
2018-02-03T15:00:04.409Z,3.57
2018-02-03T15:02:32.790Z,3.77
2018-02-03T15:05:01.219Z,3.77
2018-02-03T15:07:28.838Z,3.83
2018-02-03T15:09:56.518Z,3.60
2018-02-03T15:12:24.799Z,3.10
2018-02-03T15:14:52.534Z,3.37
2018-02-03T15:17:20.641Z,3.70
2018-02-03T15:19:48.734Z,3.67
2018-02-03T15:22:17.080Z,4.00
2018-02-03T15:24:44.688Z,3.60
2018-02-03T15:27:13.191Z,3.80
2018-02-03T15:29:40.774Z,4.30
2018-02-03T15:32:08.781Z,3.87
2018-02-03T15:34:36.357Z,3.57
2018-02-03T15:37:04.034Z,3.93
2018-02-03T15:39:32.544Z,3.43
2018-02-03T15:42:00.209Z,3.80
2018-02-03T15:44:27.798Z,4.23
2018-02-03T15:46:55.405Z,4.43
2018-02-03T15:49:24.269Z,3.50
2018-02-03T15:51:51.866Z,3.83
2018-02-03T15:54:20.497Z,3.57
2018-02-03T15:56:48.083Z,3.80
2018-02-03T15:59:16.433Z,3.73
2018-02-03T16:01:44.055Z,3.30
2018-02-03T16:04:11.680Z,3.30
2018-02-03T16:06:39.922Z,3.47
2018-02-03T16:09:07.612Z,4.33
2018-02-03T16:11:35.214Z,3.63
2018-02-03T16:14:02.867Z,3.73
2018-02-03T16:16:30.460Z,3.70
2018-02-03T16:18:58.610Z,3.80
2018-02-03T16:21:26.250Z,3.50
2018-02-03T16:23:54.569Z,3.40
2018-02-03T16:26:22.390Z,3.93
2018-02-03T16:28:51.103Z,4.13
2018-02-03T16:31:18.908Z,3.83
2018-02-03T16:33:47.340Z,3.90
2018-02-03T16:36:16.220Z,4.57
2018-02-03T16:38:43.888Z,4.70
2018-02-03T16:41:12.479Z,5.00
2018-02-03T16:43:40.493Z,5.77
2018-02-03T16:46:08.901Z,5.40
2018-02-03T16:48:36.474Z,4.97
2018-02-03T16:51:04.038Z,4.97
2018-02-03T16:53:32.471Z,5.43
2018-02-03T16:56:00.083Z,5.13
2018-02-03T16:58:27.727Z,6.37
2018-02-03T17:00:56.099Z,5.77
2018-02-03T17:03:24.338Z,5.47
2018-02-03T17:05:51.898Z,5.30
2018-02-03T17:08:20.497Z,4.73
2018-02-03T17:10:48.613Z,5.10
2018-02-03T17:13:16.274Z,4.90
2018-02-03T17:15:43.880Z,5.63
2018-02-03T17:18:11.483Z,5.10
2018-02-03T17:20:40.091Z,5.53
2018-02-03T17:23:08.283Z,5.17
2018-02-03T17:25:36.639Z,5.33
2018-02-03T17:28:05.002Z,4.87
2018-02-03T17:30:32.634Z,5.23
2018-02-03T17:33:01.147Z,4.77
2018-02-03T17:35:28.779Z,4.83
2018-02-03T17:38:02.657Z,5.03
2018-02-03T17:40:30.290Z,4.93
2018-02-03T17:42:57.886Z,4.63
2018-02-03T17:45:31.164Z,11.50
2018-02-03T17:47:58.758Z,12.33
2018-02-03T17:50:26.346Z,27.83
2018-02-03T17:52:55.087Z,12.10
2018-02-03T17:55:28.370Z,7.23
2018-02-03T17:57:55.955Z,6.37
2018-02-03T18:00:23.537Z,6.60
2018-02-03T18:02:51.119Z,6.50
2018-02-03T18:05:19.541Z,6.90
2018-02-03T18:07:47.614Z,5.13
2018-02-03T18:10:15.962Z,5.87
2018-02-03T18:12:43.541Z,5.27
2018-02-03T18:15:11.921Z,5.80
2018-02-03T18:17:40.624Z,7.20
2018-02-03T18:20:08.436Z,6.30
2018-02-03T18:22:36.055Z,5.70
2018-02-03T18:25:03.715Z,5.63
2018-02-03T18:27:31.307Z,5.40
2018-02-03T18:29:59.079Z,9.23
2018-02-03T18:32:26.656Z,8.90
2018-02-03T18:34:55.057Z,6.40
2018-02-03T18:37:22.625Z,5.83
2018-02-03T18:39:50.237Z,6.20
2018-02-03T18:42:18.607Z,6.87
2018-02-03T18:44:46.193Z,5.97
2018-02-03T18:47:14.519Z,6.17
2018-02-03T18:49:42.097Z,5.60
2018-02-03T18:52:09.682Z,6.17
2018-02-03T18:54:37.339Z,6.60
2018-02-03T18:57:05.013Z,6.33
2018-02-03T18:59:32.642Z,5.63
2018-02-03T19:02:00.993Z,6.00
2018-02-03T19:04:28.604Z,7.07
2018-02-03T19:06:56.947Z,5.87
2018-02-03T19:09:24.662Z,6.90
2018-02-03T19:11:52.264Z,5.57
2018-02-03T19:14:20.674Z,6.97
2018-02-03T19:16:48.288Z,6.23
2018-02-03T19:19:15.965Z,6.03
2018-02-03T19:21:44.369Z,5.77
2018-02-03T19:24:12.024Z,5.37
2018-02-03T19:26:40.422Z,5.83
2018-02-03T19:29:09.652Z,5.40
2018-02-03T19:31:37.458Z,5.70
2018-02-03T19:36:58.102Z,5.83
2018-02-03T19:39:25.750Z,5.70
2018-02-03T19:41:54.099Z,5.13
2018-02-03T19:44:21.648Z,5.43
2018-02-03T19:46:49.248Z,5.87
2018-02-03T19:49:16.904Z,5.60
2018-02-03T19:51:44.485Z,5.60
2018-02-03T19:54:12.103Z,5.17
2018-02-03T19:56:40.699Z,6.23
2018-02-03T19:59:09.046Z,9.07
2018-02-03T20:01:37.280Z,6.73
2018-02-03T20:04:05.668Z,7.17
2018-02-03T20:06:33.308Z,8.13
2018-02-03T20:09:01.005Z,11.50
2018-02-03T20:11:29.379Z,6.63
2018-02-03T20:13:58.460Z,6.27
2018-02-03T20:16:26.075Z,5.80
2018-02-03T20:18:53.701Z,6.70
2018-02-03T20:21:21.266Z,6.30
2018-02-03T20:23:48.860Z,6.20
2018-02-03T20:26:16.482Z,6.83
2018-02-03T20:28:44.107Z,6.80
2018-02-03T20:31:12.471Z,6.67
2018-02-03T20:33:40.110Z,6.60
2018-02-03T20:36:08.447Z,7.00
2018-02-03T20:38:36.035Z,6.70
2018-02-03T20:41:03.610Z,6.60
2018-02-03T20:43:31.209Z,7.20
2018-02-03T20:45:59.562Z,7.50
2018-02-03T20:48:27.173Z,7.73
2018-02-03T20:50:54.777Z,7.93
2018-02-03T20:53:22.344Z,7.90
2018-02-03T20:55:50.726Z,8.37
2018-02-03T20:58:19.701Z,8.03
2018-02-03T21:00:47.287Z,7.50
2018-02-03T21:03:14.867Z,7.03
2018-02-03T21:05:43.235Z,6.17
2018-02-03T21:08:10.838Z,5.83
2018-02-03T21:10:39.314Z,5.73
2018-02-03T21:13:07.825Z,5.43
2018-02-03T21:15:36.407Z,6.53
2018-02-03T21:18:04.663Z,7.00
2018-02-03T21:20:33.679Z,6.77
2018-02-03T21:23:02.643Z,6.47
2018-02-03T21:25:30.896Z,8.23
2018-02-03T21:28:00.762Z,12.70
2018-02-03T21:30:28.818Z,11.40
2018-02-03T21:32:57.879Z,11.47
2018-02-03T21:35:26.330Z,12.53
2018-02-03T21:37:54.150Z,10.40
2018-02-03T21:40:21.841Z,9.27
2018-02-03T21:42:49.732Z,11.37
2018-02-03T21:45:17.439Z,9.90
2018-02-03T21:47:45.663Z,9.33
2018-02-03T21:50:13.860Z,9.30
2018-02-03T21:52:42.912Z,8.90
2018-02-03T21:55:11.180Z,8.10
2018-02-03T21:57:39.617Z,8.33
2018-02-03T22:00:07.312Z,7.47
2018-02-03T22:02:34.958Z,6.47
2018-02-03T22:05:02.805Z,7.20
2018-02-03T22:07:31.937Z,6.70
2018-02-03T22:10:03.461Z,6.67
2018-02-03T22:12:33.110Z,7.20
2018-02-03T22:15:01.102Z,8.17
2018-02-03T22:17:28.757Z,6.50
2018-02-03T22:19:57.154Z,6.10
2018-02-03T22:22:26.252Z,6.50
2018-02-03T22:24:54.629Z,7.40
2018-02-03T22:27:24.223Z,7.13
2018-02-03T22:29:52.358Z,7.80
2018-02-03T22:32:20.469Z,7.40
2018-02-03T22:34:49.267Z,7.63
2018-02-03T22:37:17.131Z,7.73
2018-02-03T22:39:45.497Z,7.87
2018-02-03T22:42:13.170Z,8.43
2018-02-03T22:44:40.814Z,9.53
2018-02-03T22:47:09.418Z,8.80
2018-02-03T22:49:38.944Z,8.20
2018-02-03T22:52:06.538Z,9.43
2018-02-03T22:54:34.907Z,9.00
2018-02-03T22:57:02.590Z,8.33
2018-02-03T22:59:30.191Z,9.17
2018-02-03T23:01:58.551Z,8.43
2018-02-03T23:04:27.078Z,8.87
2018-02-03T23:06:56.471Z,8.80
2018-02-03T23:09:24.099Z,9.33
2018-02-03T23:11:51.869Z,9.60
2018-02-03T23:14:19.462Z,8.37
2018-02-03T23:16:47.109Z,9.50
2018-02-03T23:19:14.733Z,9.67
2018-02-03T23:21:42.336Z,8.37
2018-02-03T23:24:11.145Z,9.43
2018-02-03T23:26:39.347Z,8.73
2018-02-03T23:29:06.949Z,8.93
2018-02-03T23:31:34.550Z,8.47
2018-02-03T23:34:02.177Z,9.20
2018-02-03T23:36:29.804Z,9.20
2018-02-03T23:38:58.177Z,9.50
2018-02-03T23:41:25.828Z,8.90
2018-02-03T23:43:54.261Z,8.73
2018-02-03T23:46:22.635Z,8.57
2018-02-03T23:48:50.215Z,9.60
2018-02-03T23:51:17.848Z,9.73
2018-02-03T23:53:45.470Z,10.07
2018-02-03T23:56:13.886Z,10.53
2018-02-03T23:58:41.628Z,10.07
